Terminal Aerodrome Forecast
Issued by NWS

Home | Current Version | Previous Version | Text Only | Print | Product List | Glossary On
Versions: 1 2 3 4 5 6 7 8 9 10 11 12 13 14 15 16 17 18 19 20 21 22 23 24 25 26 27
000
FTUS41 KBUF 250500
TAFJHW
TAF
KJHW 250527Z 2506/2606 23020G44KT P6SM VCSH SCT015 OVC025
     FM250900 23022G40KT P6SM SCT007 BKN015
     FM251300 25018G36KT 6SM -SHRASN SCT003 OVC007
     FM251600 26018G36KT P6SM VCSH SCT007 OVC015
     FM251900 26016G34KT P6SM BKN025
     FM252200 26015G25KT P6SM BKN035
     FM260300 24012G18KT P6SM BKN130
      AMD LTD TO CLD VIS AND WIND=

USA.gov is the U.S. government's official web portal to all federal, state and local government web resources and services.